sensor_id;sensor_type;location;lat;lon;timestamp;P1;durP1;ratioP1;P2;durP2;ratioP2
63008;SDS011;49099;28.428;-16.488;2022-11-20T00:01:20;11.13;;;1.92;;
63008;SDS011;49099;28.428;-16.488;2022-11-20T00:03:50;6.82;;;1.48;;
63008;SDS011;49099;28.428;-16.488;2022-11-20T00:06:18;13.80;;;1.67;;
63008;SDS011;49099;28.428;-16.488;2022-11-20T00:08:46;8.80;;;1.75;;
63008;SDS011;49099;28.428;-16.488;2022-11-20T00:11:15;8.10;;;1.50;;
63008;SDS011;49099;28.428;-16.488;2022-11-20T00:13:44;10.68;;;1.60;;
63008;SDS011;49099;28.428;-16.488;2022-11-20T00:16:13;14.05;;;2.00;;
63008;SDS011;49099;28.428;-16.488;2022-11-20T00:18:41;9.85;;;1.75;;
63008;SDS011;49099;28.428;-16.488;2022-11-20T00:21:16;12.07;;;1.77;;
63008;SDS011;49099;28.428;-16.488;2022-11-20T00:23:47;12.55;;;1.48;;
63008;SDS011;49099;28.428;-16.488;2022-11-20T00:26:16;9.05;;;1.60;;
63008;SDS011;49099;28.428;-16.488;2022-11-20T00:28:48;9.73;;;1.45;;
63008;SDS011;49099;28.428;-16.488;2022-11-20T00:31:19;6.90;;;1.63;;
63008;SDS011;49099;28.428;-16.488;2022-11-20T00:33:47;6.35;;;1.42;;
63008;SDS011;49099;28.428;-16.488;2022-11-20T00:36:16;10.23;;;1.70;;
63008;SDS011;49099;28.428;-16.488;2022-11-20T00:38:44;6.50;;;1.42;;
63008;SDS011;49099;28.428;-16.488;2022-11-20T00:41:13;7.15;;;1.35;;
63008;SDS011;49099;28.428;-16.488;2022-11-20T00:43:41;10.32;;;1.73;;
63008;SDS011;49099;28.428;-16.488;2022-11-20T00:48:39;7.75;;;1.40;;
63008;SDS011;49099;28.428;-16.488;2022-11-20T00:51:06;10.90;;;1.90;;
63008;SDS011;49099;28.428;-16.488;2022-11-20T00:53:33;10.18;;;1.73;;
63008;SDS011;49099;28.428;-16.488;2022-11-20T00:56:04;9.32;;;1.75;;
63008;SDS011;49099;28.428;-16.488;2022-11-20T00:58:34;10.02;;;1.48;;
63008;SDS011;49099;28.428;-16.488;2022-11-20T01:01:04;9.13;;;1.60;;
63008;SDS011;49099;28.428;-16.488;2022-11-20T01:03:36;10.25;;;1.50;;
63008;SDS011;49099;28.428;-16.488;2022-11-20T01:06:06;5.73;;;1.20;;
63008;SDS011;49099;28.428;-16.488;2022-11-20T01:08:37;11.43;;;1.40;;
63008;SDS011;49099;28.428;-16.488;2022-11-20T01:11:08;7.13;;;1.73;;
63008;SDS011;49099;28.428;-16.488;2022-11-20T01:13:41;10.50;;;1.50;;
63008;SDS011;49099;28.428;-16.488;2022-11-20T01:16:10;11.13;;;2.10;;
63008;SDS011;49099;28.428;-16.488;2022-11-20T01:18:52;9.00;;;1.75;;
63008;SDS011;49099;28.428;-16.488;2022-11-20T01:21:22;6.50;;;1.23;;
63008;SDS011;49099;28.428;-16.488;2022-11-20T01:23:50;9.80;;;1.50;;
63008;SDS011;49099;28.428;-16.488;2022-11-20T01:26:19;9.02;;;1.60;;
63008;SDS011;49099;28.428;-16.488;2022-11-20T01:28:51;7.80;;;1.33;;
63008;SDS011;49099;28.428;-16.488;2022-11-20T01:33:47;11.98;;;1.50;;
63008;SDS011;49099;28.428;-16.488;2022-11-20T01:36:16;7.70;;;1.52;;
63008;SDS011;49099;28.428;-16.488;2022-11-20T01:38:45;10.10;;;1.55;;
63008;SDS011;49099;28.428;-16.488;2022-11-20T01:41:13;6.75;;;1.30;;
63008;SDS011;49099;28.428;-16.488;2022-11-20T01:44:01;7.95;;;1.63;;
63008;SDS011;49099;28.428;-16.488;2022-11-20T01:46:30;9.57;;;1.73;;
63008;SDS011;49099;28.428;-16.488;2022-11-20T01:51:42;7.93;;;1.73;;
63008;SDS011;49099;28.428;-16.488;2022-11-20T01:54:16;10.27;;;1.92;;
63008;SDS011;49099;28.428;-16.488;2022-11-20T01:56:46;12.20;;;1.92;;
63008;SDS011;49099;28.428;-16.488;2022-11-20T01:59:15;8.40;;;1.60;;
63008;SDS011;49099;28.428;-16.488;2022-11-20T02:01:46;9.15;;;1.70;;
63008;SDS011;49099;28.428;-16.488;2022-11-20T02:04:13;11.27;;;1.80;;
63008;SDS011;49099;28.428;-16.488;2022-11-20T02:06:42;14.50;;;2.13;;
63008;SDS011;49099;28.428;-16.488;2022-11-20T02:09:13;10.30;;;1.92;;
63008;SDS011;49099;28.428;-16.488;2022-11-20T02:11:41;10.60;;;1.60;;
63008;SDS011;49099;28.428;-16.488;2022-11-20T02:14:08;10.55;;;1.95;;
63008;SDS011;49099;28.428;-16.488;2022-11-20T02:16:40;12.73;;;1.90;;
63008;SDS011;49099;28.428;-16.488;2022-11-20T02:19:22;14.15;;;2.15;;
63008;SDS011;49099;28.428;-16.488;2022-11-20T02:24:25;10.55;;;1.42;;
63008;SDS011;49099;28.428;-16.488;2022-11-20T02:27:11;10.13;;;1.63;;
63008;SDS011;49099;28.428;-16.488;2022-11-20T02:32:19;11.65;;;2.13;;
63008;SDS011;49099;28.428;-16.488;2022-11-20T02:34:48;8.32;;;1.50;;
63008;SDS011;49099;28.428;-16.488;2022-11-20T02:37:15;9.52;;;1.50;;
63008;SDS011;49099;28.428;-16.488;2022-11-20T02:39:44;10.07;;;1.52;;
63008;SDS011;49099;28.428;-16.488;2022-11-20T02:42:12;10.07;;;1.50;;
63008;SDS011;49099;28.428;-16.488;2022-11-20T02:44:39;11.23;;;1.60;;
63008;SDS011;49099;28.428;-16.488;2022-11-20T02:47:07;9.70;;;1.80;;
63008;SDS011;49099;28.428;-16.488;2022-11-20T02:49:35;6.30;;;1.40;;
63008;SDS011;49099;28.428;-16.488;2022-11-20T02:52:02;6.82;;;1.58;;
63008;SDS011;49099;28.428;-16.488;2022-11-20T02:54:29;8.40;;;1.48;;
63008;SDS011;49099;28.428;-16.488;2022-11-20T02:56:56;9.52;;;1.75;;
63008;SDS011;49099;28.428;-16.488;2022-11-20T02:59:23;10.15;;;2.13;;
63008;SDS011;49099;28.428;-16.488;2022-11-20T03:01:50;12.23;;;1.83;;
63008;SDS011;49099;28.428;-16.488;2022-11-20T03:04:17;7.43;;;1.40;;
63008;SDS011;49099;28.428;-16.488;2022-11-20T03:06:44;9.32;;;1.45;;
63008;SDS011;49099;28.428;-16.488;2022-11-20T03:09:11;7.97;;;1.42;;
63008;SDS011;49099;28.428;-16.488;2022-11-20T03:11:39;8.15;;;1.60;;
63008;SDS011;49099;28.428;-16.488;2022-11-20T03:14:06;8.30;;;1.50;;
63008;SDS011;49099;28.428;-16.488;2022-11-20T03:16:33;8.70;;;1.30;;
63008;SDS011;49099;28.428;-16.488;2022-11-20T03:19:00;8.45;;;1.63;;
63008;SDS011;49099;28.428;-16.488;2022-11-20T03:21:27;10.32;;;1.60;;
63008;SDS011;49099;28.428;-16.488;2022-11-20T03:23:54;7.75;;;1.50;;
63008;SDS011;49099;28.428;-16.488;2022-11-20T03:26:25;8.73;;;1.30;;
63008;SDS011;49099;28.428;-16.488;2022-11-20T03:28:57;7.88;;;1.25;;
63008;SDS011;49099;28.428;-16.488;2022-11-20T03:31:29;9.48;;;1.55;;
63008;SDS011;49099;28.428;-16.488;2022-11-20T03:33:59;8.97;;;1.53;;
63008;SDS011;49099;28.428;-16.488;2022-11-20T03:36:26;11.43;;;1.60;;
63008;SDS011;49099;28.428;-16.488;2022-11-20T03:38:54;9.73;;;1.80;;
63008;SDS011;49099;28.428;-16.488;2022-11-20T03:41:26;10.73;;;1.60;;
63008;SDS011;49099;28.428;-16.488;2022-11-20T03:46:23;7.40;;;1.40;;
63008;SDS011;49099;28.428;-16.488;2022-11-20T03:48:50;8.40;;;1.38;;
63008;SDS011;49099;28.428;-16.488;2022-11-20T03:51:19;9.73;;;1.55;;
63008;SDS011;49099;28.428;-16.488;2022-11-20T03:53:48;9.73;;;1.85;;
63008;SDS011;49099;28.428;-16.488;2022-11-20T03:56:18;6.93;;;1.50;;
63008;SDS011;49099;28.428;-16.488;2022-11-20T03:58:47;6.30;;;1.52;;
63008;SDS011;49099;28.428;-16.488;2022-11-20T04:01:16;14.20;;;1.98;;
63008;SDS011;49099;28.428;-16.488;2022-11-20T04:03:45;9.30;;;1.60;;
63008;SDS011;49099;28.428;-16.488;2022-11-20T04:06:20;7.13;;;1.80;;
63008;SDS011;49099;28.428;-16.488;2022-11-20T04:08:49;8.65;;;1.30;;
63008;SDS011;49099;28.428;-16.488;2022-11-20T04:11:27;7.60;;;1.50;;
63008;SDS011;49099;28.428;-16.488;2022-11-20T04:13:57;8.88;;;1.40;;
63008;SDS011;49099;28.428;-16.488;2022-11-20T04:16:26;8.68;;;1.45;;
63008;SDS011;49099;28.428;-16.488;2022-11-20T04:18:57;10.63;;;1.70;;
63008;SDS011;49099;28.428;-16.488;2022-11-20T04:21:26;11.27;;;1.60;;
63008;SDS011;49099;28.428;-16.488;2022-11-20T04:23:54;11.70;;;1.80;;
63008;SDS011;49099;28.428;-16.488;2022-11-20T04:26:22;10.18;;;1.73;;
63008;SDS011;49099;28.428;-16.488;2022-11-20T04:28:51;11.02;;;1.70;;
63008;SDS011;49099;28.428;-16.488;2022-11-20T04:31:22;10.95;;;1.90;;
63008;SDS011;49099;28.428;-16.488;2022-11-20T04:33:50;11.18;;;1.70;;
63008;SDS011;49099;28.428;-16.488;2022-11-20T04:36:22;6.07;;;1.20;;
63008;SDS011;49099;28.428;-16.488;2022-11-20T04:38:55;7.35;;;1.55;;
63008;SDS011;49099;28.428;-16.488;2022-11-20T04:41:24;14.10;;;1.80;;
63008;SDS011;49099;28.428;-16.488;2022-11-20T04:43:55;10.15;;;1.92;;
63008;SDS011;49099;28.428;-16.488;2022-11-20T04:46:26;10.27;;;1.60;;
63008;SDS011;49099;28.428;-16.488;2022-11-20T04:48:54;11.00;;;1.67;;
63008;SDS011;49099;28.428;-16.488;2022-11-20T04:51:22;12.35;;;1.60;;
63008;SDS011;49099;28.428;-16.488;2022-11-20T04:53:49;11.02;;;1.85;;
63008;SDS011;49099;28.428;-16.488;2022-11-20T04:56:17;9.02;;;1.88;;
63008;SDS011;49099;28.428;-16.488;2022-11-20T04:58:44;8.95;;;1.77;;
63008;SDS011;49099;28.428;-16.488;2022-11-20T05:01:12;7.25;;;1.60;;
63008;SDS011;49099;28.428;-16.488;2022-11-20T05:03:41;10.30;;;1.83;;
63008;SDS011;49099;28.428;-16.488;2022-11-20T05:06:10;12.98;;;1.67;;
63008;SDS011;49099;28.428;-16.488;2022-11-20T05:08:39;7.18;;;1.25;;
63008;SDS011;49099;28.428;-16.488;2022-11-20T05:11:11;7.78;;;1.63;;
63008;SDS011;49099;28.428;-16.488;2022-11-20T05:13:40;12.38;;;2.00;;
63008;SDS011;49099;28.428;-16.488;2022-11-20T05:18:55;11.70;;;2.08;;
63008;SDS011;49099;28.428;-16.488;2022-11-20T05:21:22;10.55;;;1.80;;
63008;SDS011;49099;28.428;-16.488;2022-11-20T05:23:49;9.57;;;1.50;;
63008;SDS011;49099;28.428;-16.488;2022-11-20T05:26:17;11.27;;;1.77;;
63008;SDS011;49099;28.428;-16.488;2022-11-20T05:28:48;9.05;;;1.40;;
63008;SDS011;49099;28.428;-16.488;2022-11-20T05:31:20;8.07;;;1.35;;
63008;SDS011;49099;28.428;-16.488;2022-11-20T05:33:53;7.60;;;1.55;;
63008;SDS011;49099;28.428;-16.488;2022-11-20T05:36:22;8.48;;;1.65;;
63008;SDS011;49099;28.428;-16.488;2022-11-20T05:38:49;12.13;;;1.90;;
63008;SDS011;49099;28.428;-16.488;2022-11-20T05:41:19;8.70;;;1.70;;
63008;SDS011;49099;28.428;-16.488;2022-11-20T05:43:47;8.13;;;1.38;;
63008;SDS011;49099;28.428;-16.488;2022-11-20T05:46:16;10.90;;;1.80;;
63008;SDS011;49099;28.428;-16.488;2022-11-20T05:48:53;7.50;;;1.40;;
63008;SDS011;49099;28.428;-16.488;2022-11-20T05:51:20;5.53;;;1.40;;
63008;SDS011;49099;28.428;-16.488;2022-11-20T05:53:47;14.63;;;2.22;;
63008;SDS011;49099;28.428;-16.488;2022-11-20T05:56:18;8.57;;;1.50;;
63008;SDS011;49099;28.428;-16.488;2022-11-20T05:58:47;6.07;;;1.55;;
63008;SDS011;49099;28.428;-16.488;2022-11-20T06:01:20;9.05;;;1.48;;
63008;SDS011;49099;28.428;-16.488;2022-11-20T06:03:49;8.05;;;1.52;;
63008;SDS011;49099;28.428;-16.488;2022-11-20T06:06:18;8.63;;;1.50;;
63008;SDS011;49099;28.428;-16.488;2022-11-20T06:08:45;7.15;;;1.38;;
63008;SDS011;49099;28.428;-16.488;2022-11-20T06:11:13;6.88;;;1.45;;
63008;SDS011;49099;28.428;-16.488;2022-11-20T06:13:41;6.70;;;1.30;;
63008;SDS011;49099;28.428;-16.488;2022-11-20T06:16:09;7.80;;;1.23;;
63008;SDS011;49099;28.428;-16.488;2022-11-20T06:18:38;11.35;;;1.40;;
63008;SDS011;49099;28.428;-16.488;2022-11-20T06:21:06;7.53;;;1.30;;
63008;SDS011;49099;28.428;-16.488;2022-11-20T06:23:38;6.38;;;1.10;;
63008;SDS011;49099;28.428;-16.488;2022-11-20T06:26:09;7.50;;;1.17;;
63008;SDS011;49099;28.428;-16.488;2022-11-20T06:28:38;5.55;;;1.27;;
63008;SDS011;49099;28.428;-16.488;2022-11-20T06:31:06;6.60;;;1.35;;
63008;SDS011;49099;28.428;-16.488;2022-11-20T06:33:34;5.15;;;1.17;;
63008;SDS011;49099;28.428;-16.488;2022-11-20T06:36:01;10.23;;;1.67;;
63008;SDS011;49099;28.428;-16.488;2022-11-20T06:38:35;6.32;;;1.10;;
63008;SDS011;49099;28.428;-16.488;2022-11-20T06:41:03;3.45;;;0.90;;
63008;SDS011;49099;28.428;-16.488;2022-11-20T06:43:31;7.15;;;1.23;;
63008;SDS011;49099;28.428;-16.488;2022-11-20T06:45:59;5.38;;;1.10;;
63008;SDS011;49099;28.428;-16.488;2022-11-20T06:48:27;7.03;;;1.08;;
63008;SDS011;49099;28.428;-16.488;2022-11-20T06:50:57;5.40;;;1.00;;
63008;SDS011;49099;28.428;-16.488;2022-11-20T06:53:25;5.15;;;1.23;;
63008;SDS011;49099;28.428;-16.488;2022-11-20T06:55:52;4.32;;;1.05;;
63008;SDS011;49099;28.428;-16.488;2022-11-20T06:58:21;5.85;;;1.10;;
63008;SDS011;49099;28.428;-16.488;2022-11-20T07:00:48;4.85;;;1.10;;
63008;SDS011;49099;28.428;-16.488;2022-11-20T07:03:16;7.90;;;0.90;;
63008;SDS011;49099;28.428;-16.488;2022-11-20T07:05:43;6.30;;;1.23;;
63008;SDS011;49099;28.428;-16.488;2022-11-20T07:08:11;6.97;;;1.10;;
63008;SDS011;49099;28.428;-16.488;2022-11-20T07:10:38;4.07;;;1.02;;
63008;SDS011;49099;28.428;-16.488;2022-11-20T07:13:05;3.75;;;0.77;;
63008;SDS011;49099;28.428;-16.488;2022-11-20T07:15:33;8.63;;;1.17;;
63008;SDS011;49099;28.428;-16.488;2022-11-20T07:18:01;5.40;;;1.17;;
63008;SDS011;49099;28.428;-16.488;2022-11-20T07:20:28;9.02;;;1.08;;
63008;SDS011;49099;28.428;-16.488;2022-11-20T07:22:56;4.07;;;0.88;;
63008;SDS011;49099;28.428;-16.488;2022-11-20T07:25:24;3.55;;;0.90;;
63008;SDS011;49099;28.428;-16.488;2022-11-20T07:27:52;3.72;;;0.80;;
63008;SDS011;49099;28.428;-16.488;2022-11-20T07:30:19;5.00;;;0.90;;
63008;SDS011;49099;28.428;-16.488;2022-11-20T07:32:47;6.10;;;0.82;;
63008;SDS011;49099;28.428;-16.488;2022-11-20T07:35:18;4.95;;;0.90;;
63008;SDS011;49099;28.428;-16.488;2022-11-20T07:37:45;6.70;;;1.35;;
63008;SDS011;49099;28.428;-16.488;2022-11-20T07:40:14;4.22;;;1.02;;
63008;SDS011;49099;28.428;-16.488;2022-11-20T07:42:51;4.82;;;1.10;;
63008;SDS011;49099;28.428;-16.488;2022-11-20T07:45:20;5.38;;;0.95;;
63008;SDS011;49099;28.428;-16.488;2022-11-20T07:47:49;3.67;;;0.80;;
63008;SDS011;49099;28.428;-16.488;2022-11-20T07:50:17;4.38;;;1.15;;
63008;SDS011;49099;28.428;-16.488;2022-11-20T07:52:45;4.25;;;1.00;;
63008;SDS011;49099;28.428;-16.488;2022-11-20T07:55:13;5.03;;;1.00;;
63008;SDS011;49099;28.428;-16.488;2022-11-20T07:57:40;7.15;;;1.30;;
63008;SDS011;49099;28.428;-16.488;2022-11-20T08:00:08;4.40;;;0.88;;
63008;SDS011;49099;28.428;-16.488;2022-11-20T08:02:37;8.00;;;1.02;;
63008;SDS011;49099;28.428;-16.488;2022-11-20T08:05:06;3.92;;;0.70;;
63008;SDS011;49099;28.428;-16.488;2022-11-20T08:07:38;3.38;;;0.80;;
63008;SDS011;49099;28.428;-16.488;2022-11-20T08:10:06;5.13;;;1.40;;
63008;SDS011;49099;28.428;-16.488;2022-11-20T08:12:34;2.72;;;0.70;;
63008;SDS011;49099;28.428;-16.488;2022-11-20T08:15:20;3.17;;;0.85;;
63008;SDS011;49099;28.428;-16.488;2022-11-20T08:17:47;5.13;;;0.90;;
63008;SDS011;49099;28.428;-16.488;2022-11-20T08:20:34;2.55;;;0.85;;
63008;SDS011;49099;28.428;-16.488;2022-11-20T08:23:03;4.43;;;1.17;;
63008;SDS011;49099;28.428;-16.488;2022-11-20T08:25:32;4.38;;;0.93;;
63008;SDS011;49099;28.428;-16.488;2022-11-20T08:28:02;2.72;;;0.82;;
63008;SDS011;49099;28.428;-16.488;2022-11-20T08:30:45;8.82;;;1.30;;
63008;SDS011;49099;28.428;-16.488;2022-11-20T08:33:12;5.00;;;0.90;;
63008;SDS011;49099;28.428;-16.488;2022-11-20T08:35:39;2.90;;;0.90;;
63008;SDS011;49099;28.428;-16.488;2022-11-20T08:38:08;4.65;;;0.90;;
63008;SDS011;49099;28.428;-16.488;2022-11-20T08:40:36;3.65;;;0.95;;
63008;SDS011;49099;28.428;-16.488;2022-11-20T08:43:03;6.75;;;0.88;;
63008;SDS011;49099;28.428;-16.488;2022-11-20T08:45:30;6.57;;;1.23;;
63008;SDS011;49099;28.428;-16.488;2022-11-20T08:48:01;10.68;;;1.10;;
63008;SDS011;49099;28.428;-16.488;2022-11-20T08:50:29;12.52;;;2.28;;
63008;SDS011;49099;28.428;-16.488;2022-11-20T08:53:05;10.85;;;1.77;;
63008;SDS011;49099;28.428;-16.488;2022-11-20T08:55:32;5.22;;;1.10;;
63008;SDS011;49099;28.428;-16.488;2022-11-20T08:58:05;2.90;;;0.95;;
63008;SDS011;49099;28.428;-16.488;2022-11-20T09:00:33;4.03;;;0.90;;
63008;SDS011;49099;28.428;-16.488;2022-11-20T09:03:00;6.18;;;1.10;;
63008;SDS011;49099;28.428;-16.488;2022-11-20T09:05:28;4.47;;;0.93;;
63008;SDS011;49099;28.428;-16.488;2022-11-20T09:07:56;5.80;;;1.00;;
63008;SDS011;49099;28.428;-16.488;2022-11-20T09:10:24;2.85;;;0.90;;
63008;SDS011;49099;28.428;-16.488;2022-11-20T09:12:52;4.97;;;0.90;;
63008;SDS011;49099;28.428;-16.488;2022-11-20T09:15:19;3.97;;;1.05;;
63008;SDS011;49099;28.428;-16.488;2022-11-20T09:17:57;4.45;;;0.77;;
63008;SDS011;49099;28.428;-16.488;2022-11-20T09:20:26;4.32;;;1.42;;
63008;SDS011;49099;28.428;-16.488;2022-11-20T09:22:55;5.40;;;0.90;;
63008;SDS011;49099;28.428;-16.488;2022-11-20T09:25:23;5.07;;;1.20;;
63008;SDS011;49099;28.428;-16.488;2022-11-20T09:27:56;4.43;;;0.90;;
63008;SDS011;49099;28.428;-16.488;2022-11-20T09:30:25;3.70;;;0.85;;
63008;SDS011;49099;28.428;-16.488;2022-11-20T09:32:52;4.70;;;0.70;;
63008;SDS011;49099;28.428;-16.488;2022-11-20T09:35:20;7.10;;;0.80;;
63008;SDS011;49099;28.428;-16.488;2022-11-20T09:37:47;2.60;;;0.80;;
63008;SDS011;49099;28.428;-16.488;2022-11-20T09:40:27;3.05;;;0.85;;
63008;SDS011;49099;28.428;-16.488;2022-11-20T09:54:02;5.18;;;0.90;;
63008;SDS011;49099;28.428;-16.488;2022-11-20T09:56:39;2.47;;;0.82;;
63008;SDS011;49099;28.428;-16.488;2022-11-20T09:59:20;3.67;;;1.17;;
63008;SDS011;49099;28.428;-16.488;2022-11-20T10:01:55;4.50;;;1.40;;
63008;SDS011;49099;28.428;-16.488;2022-11-20T10:04:25;8.00;;;1.23;;
63008;SDS011;49099;28.428;-16.488;2022-11-20T10:09:55;6.35;;;1.20;;
63008;SDS011;49099;28.428;-16.488;2022-11-20T10:12:27;5.60;;;1.20;;
63008;SDS011;49099;28.428;-16.488;2022-11-20T10:17:58;7.22;;;1.35;;
63008;SDS011;49099;28.428;-16.488;2022-11-20T10:26:32;9.50;;;0.90;;
63008;SDS011;49099;28.428;-16.488;2022-11-20T10:29:12;5.93;;;1.15;;
63008;SDS011;49099;28.428;-16.488;2022-11-20T10:31:43;6.53;;;1.40;;
63008;SDS011;49099;28.428;-16.488;2022-11-20T10:34:21;10.52;;;1.42;;
63008;SDS011;49099;28.428;-16.488;2022-11-20T10:36:54;7.72;;;1.35;;
63008;SDS011;49099;28.428;-16.488;2022-11-20T10:39:33;5.95;;;1.13;;
63008;SDS011;49099;28.428;-16.488;2022-11-20T10:42:08;8.48;;;1.52;;
63008;SDS011;49099;28.428;-16.488;2022-11-20T10:44:39;5.57;;;0.93;;
63008;SDS011;49099;28.428;-16.488;2022-11-20T10:47:31;3.42;;;1.08;;
63008;SDS011;49099;28.428;-16.488;2022-11-20T10:50:03;3.80;;;0.93;;
63008;SDS011;49099;28.428;-16.488;2022-11-20T10:58:14;4.65;;;1.20;;
63008;SDS011;49099;28.428;-16.488;2022-11-20T11:01:05;5.88;;;1.35;;
63008;SDS011;49099;28.428;-16.488;2022-11-20T11:03:40;6.18;;;1.45;;
63008;SDS011;49099;28.428;-16.488;2022-11-20T11:06:15;5.53;;;1.30;;
63008;SDS011;49099;28.428;-16.488;2022-11-20T11:08:51;5.38;;;1.38;;
63008;SDS011;49099;28.428;-16.488;2022-11-20T11:11:29;5.78;;;1.33;;
63008;SDS011;49099;28.428;-16.488;2022-11-20T11:14:12;8.15;;;1.50;;
63008;SDS011;49099;28.428;-16.488;2022-11-20T11:16:50;6.18;;;1.73;;
63008;SDS011;49099;28.428;-16.488;2022-11-20T11:19:22;5.95;;;1.20;;
63008;SDS011;49099;28.428;-16.488;2022-11-20T11:21:52;5.50;;;1.35;;
63008;SDS011;49099;28.428;-16.488;2022-11-20T11:24:22;8.32;;;1.55;;
63008;SDS011;49099;28.428;-16.488;2022-11-20T11:27:11;6.05;;;1.50;;
63008;SDS011;49099;28.428;-16.488;2022-11-20T11:29:43;9.88;;;1.40;;
63008;SDS011;49099;28.428;-16.488;2022-11-20T11:32:12;11.40;;;1.52;;
63008;SDS011;49099;28.428;-16.488;2022-11-20T11:35:03;6.03;;;1.20;;
63008;SDS011;49099;28.428;-16.488;2022-11-20T11:37:34;7.63;;;1.65;;
63008;SDS011;49099;28.428;-16.488;2022-11-20T11:40:03;10.38;;;1.80;;
63008;SDS011;49099;28.428;-16.488;2022-11-20T11:43:38;5.05;;;1.20;;
63008;SDS011;49099;28.428;-16.488;2022-11-20T11:46:52;6.03;;;1.48;;
63008;SDS011;49099;28.428;-16.488;2022-11-20T11:52:18;15.63;;;2.28;;
63008;SDS011;49099;28.428;-16.488;2022-11-20T11:57:47;12.70;;;2.30;;
63008;SDS011;49099;28.428;-16.488;2022-11-20T12:00:35;12.93;;;2.03;;
63008;SDS011;49099;28.428;-16.488;2022-11-20T12:03:21;19.63;;;2.45;;
63008;SDS011;49099;28.428;-16.488;2022-11-20T12:05:58;15.02;;;1.98;;
63008;SDS011;49099;28.428;-16.488;2022-11-20T12:11:06;9.10;;;1.60;;
63008;SDS011;49099;28.428;-16.488;2022-11-20T12:16:15;11.70;;;1.60;;
63008;SDS011;49099;28.428;-16.488;2022-11-20T12:18:49;8.95;;;1.50;;
63008;SDS011;49099;28.428;-16.488;2022-11-20T12:26:54;5.25;;;1.20;;
63008;SDS011;49099;28.428;-16.488;2022-11-20T12:29:26;7.07;;;1.35;;
63008;SDS011;49099;28.428;-16.488;2022-11-20T12:34:58;5.75;;;1.40;;
63008;SDS011;49099;28.428;-16.488;2022-11-20T12:57:44;14.48;;;2.90;;
63008;SDS011;49099;28.428;-16.488;2022-11-20T13:00:21;9.90;;;1.90;;
63008;SDS011;49099;28.428;-16.488;2022-11-20T13:08:52;16.02;;;2.17;;
63008;SDS011;49099;28.428;-16.488;2022-11-20T13:20:15;5.47;;;1.20;;
63008;SDS011;49099;28.428;-16.488;2022-11-20T13:22:48;6.18;;;1.38;;
63008;SDS011;49099;28.428;-16.488;2022-11-20T13:27:49;11.65;;;2.03;;
63008;SDS011;49099;28.428;-16.488;2022-11-20T13:30:17;10.38;;;1.98;;
63008;SDS011;49099;28.428;-16.488;2022-11-20T13:36:02;10.48;;;2.28;;
63008;SDS011;49099;28.428;-16.488;2022-11-20T13:38:44;12.18;;;1.95;;
63008;SDS011;49099;28.428;-16.488;2022-11-20T13:49:38;14.23;;;2.63;;
63008;SDS011;49099;28.428;-16.488;2022-11-20T14:01:23;7.50;;;2.15;;
63008;SDS011;49099;28.428;-16.488;2022-11-20T14:03:53;8.93;;;1.98;;
63008;SDS011;49099;28.428;-16.488;2022-11-20T14:06:42;8.05;;;1.60;;
63008;SDS011;49099;28.428;-16.488;2022-11-20T14:09:13;10.68;;;1.80;;
63008;SDS011;49099;28.428;-16.488;2022-11-20T14:11:51;14.95;;;2.90;;
63008;SDS011;49099;28.428;-16.488;2022-11-20T14:14:20;14.18;;;2.35;;
63008;SDS011;49099;28.428;-16.488;2022-11-20T14:16:48;14.90;;;2.47;;
63008;SDS011;49099;28.428;-16.488;2022-11-20T14:19:23;11.57;;;2.65;;
63008;SDS011;49099;28.428;-16.488;2022-11-20T14:21:54;8.32;;;1.98;;
63008;SDS011;49099;28.428;-16.488;2022-11-20T14:24:34;13.48;;;2.70;;
63008;SDS011;49099;28.428;-16.488;2022-11-20T14:27:01;12.57;;;2.40;;
63008;SDS011;49099;28.428;-16.488;2022-11-20T14:29:37;13.25;;;2.50;;
63008;SDS011;49099;28.428;-16.488;2022-11-20T14:32:05;13.80;;;2.50;;
63008;SDS011;49099;28.428;-16.488;2022-11-20T14:34:32;13.88;;;2.55;;
63008;SDS011;49099;28.428;-16.488;2022-11-20T14:37:05;14.13;;;2.85;;
63008;SDS011;49099;28.428;-16.488;2022-11-20T14:39:43;12.75;;;2.13;;
63008;SDS011;49099;28.428;-16.488;2022-11-20T14:42:17;10.43;;;2.33;;
63008;SDS011;49099;28.428;-16.488;2022-11-20T14:44:46;14.68;;;2.45;;
63008;SDS011;49099;28.428;-16.488;2022-11-20T14:47:17;10.32;;;2.38;;
63008;SDS011;49099;28.428;-16.488;2022-11-20T14:49:50;10.25;;;2.42;;
63008;SDS011;49099;28.428;-16.488;2022-11-20T14:52:20;13.15;;;3.13;;
63008;SDS011;49099;28.428;-16.488;2022-11-20T14:54:53;7.60;;;2.10;;
63008;SDS011;49099;28.428;-16.488;2022-11-20T14:57:28;11.98;;;2.38;;
63008;SDS011;49099;28.428;-16.488;2022-11-20T15:02:43;9.98;;;2.20;;
63008;SDS011;49099;28.428;-16.488;2022-11-20T15:05:12;13.27;;;2.28;;
63008;SDS011;49099;28.428;-16.488;2022-11-20T15:07:44;11.95;;;2.72;;
63008;SDS011;49099;28.428;-16.488;2022-11-20T15:10:18;12.95;;;2.72;;
63008;SDS011;49099;28.428;-16.488;2022-11-20T15:12:51;9.75;;;2.42;;
63008;SDS011;49099;28.428;-16.488;2022-11-20T15:17:55;12.73;;;2.67;;
63008;SDS011;49099;28.428;-16.488;2022-11-20T15:20:24;11.27;;;2.83;;
63008;SDS011;49099;28.428;-16.488;2022-11-20T15:22:54;11.07;;;2.28;;
63008;SDS011;49099;28.428;-16.488;2022-11-20T15:25:21;13.00;;;2.08;;
63008;SDS011;49099;28.428;-16.488;2022-11-20T15:27:59;11.55;;;2.20;;
63008;SDS011;49099;28.428;-16.488;2022-11-20T15:30:26;11.25;;;2.53;;
63008;SDS011;49099;28.428;-16.488;2022-11-20T15:32:54;16.50;;;2.00;;
63008;SDS011;49099;28.428;-16.488;2022-11-20T15:35:21;8.48;;;1.92;;
63008;SDS011;49099;28.428;-16.488;2022-11-20T15:37:48;10.40;;;2.00;;
63008;SDS011;49099;28.428;-16.488;2022-11-20T15:40:15;9.75;;;1.80;;
63008;SDS011;49099;28.428;-16.488;2022-11-20T15:42:42;9.57;;;2.15;;
63008;SDS011;49099;28.428;-16.488;2022-11-20T15:45:37;11.68;;;2.30;;
63008;SDS011;49099;28.428;-16.488;2022-11-20T15:48:13;12.68;;;2.45;;
63008;SDS011;49099;28.428;-16.488;2022-11-20T15:51:00;8.13;;;1.52;;
63008;SDS011;49099;28.428;-16.488;2022-11-20T15:53:32;11.02;;;1.77;;
63008;SDS011;49099;28.428;-16.488;2022-11-20T15:55:59;13.35;;;1.92;;
63008;SDS011;49099;28.428;-16.488;2022-11-20T15:58:26;8.80;;;1.83;;
63008;SDS011;49099;28.428;-16.488;2022-11-20T16:00:53;10.77;;;2.00;;
63008;SDS011;49099;28.428;-16.488;2022-11-20T16:03:20;12.18;;;2.20;;
63008;SDS011;49099;28.428;-16.488;2022-11-20T16:05:48;10.00;;;1.83;;
63008;SDS011;49099;28.428;-16.488;2022-11-20T16:08:15;9.00;;;2.10;;
63008;SDS011;49099;28.428;-16.488;2022-11-20T16:10:42;11.55;;;1.83;;
63008;SDS011;49099;28.428;-16.488;2022-11-20T16:13:13;10.77;;;2.00;;
63008;SDS011;49099;28.428;-16.488;2022-11-20T16:16:02;7.05;;;1.67;;
63008;SDS011;49099;28.428;-16.488;2022-11-20T16:18:32;12.57;;;2.63;;
63008;SDS011;49099;28.428;-16.488;2022-11-20T16:21:00;14.18;;;2.95;;
63008;SDS011;49099;28.428;-16.488;2022-11-20T16:23:27;19.33;;;2.97;;
63008;SDS011;49099;28.428;-16.488;2022-11-20T16:25:55;14.35;;;2.80;;
63008;SDS011;49099;28.428;-16.488;2022-11-20T16:28:22;17.50;;;2.53;;
63008;SDS011;49099;28.428;-16.488;2022-11-20T16:30:49;9.88;;;2.42;;
63008;SDS011;49099;28.428;-16.488;2022-11-20T16:33:17;10.90;;;2.20;;
63008;SDS011;49099;28.428;-16.488;2022-11-20T16:35:44;12.15;;;2.20;;
63008;SDS011;49099;28.428;-16.488;2022-11-20T16:38:11;14.07;;;2.85;;
63008;SDS011;49099;28.428;-16.488;2022-11-20T16:40:38;13.60;;;1.92;;
63008;SDS011;49099;28.428;-16.488;2022-11-20T16:43:08;18.75;;;2.85;;
63008;SDS011;49099;28.428;-16.488;2022-11-20T16:45:39;19.67;;;3.28;;
63008;SDS011;49099;28.428;-16.488;2022-11-20T16:48:11;13.25;;;2.40;;